Aviation Digital Data Service (ADDS)

Output produced by METARs form (1052 UTC 19 April 2015)
found at http://www.aviationweather.gov/adds/metars/
 
KPIA 190526Z 1906/2006 08007KT P6SM OVC150 
     FM191200 09006KT P6SM VCSH SCT020 OVC060 
     FM191600 VRB06KT 5SM -RA BR OVC025